Time;durP1;ratioP1;P1;durP2;ratioP2;P2;SDS_P1;SDS_P2;PMS_P1;PMS_P2;Temp;Humidity;BMP_temperature;BMP_pressure;BME280_temperature;BME280_humidity;BME280_pressure;Samples;Min_cycle;Max_cycle;Signal;HPM_P1;HPM_P2
2021/08/25 03:33:40;;;;;;;12.00;10.80;;;;;;;17.08;58.99;99269.34;8702246;22;20609;-82
2021/08/25 03:37:03;;;;;;;11.87;10.67;;;;;;;16.91;58.82;99280.09;8719975;22;20179;-82
2021/08/25 03:40:24;;;;;;;12.73;11.43;;;;;;;16.78;59.15;99283.06;8703531;22;20235;-82
2021/08/25 03:43:46;;;;;;;11.80;10.60;;;;;;;16.82;59.40;99278.78;8648138;22;20215;-78
2021/08/25 03:47:08;;;;;;;12.90;10.87;;;;;;;16.71;59.87;99273.31;8590827;23;20201;-79
2021/08/25 03:50:31;;;;;;;12.07;10.93;;;;;;;16.77;59.94;99277.81;8577632;23;20178;-78
2021/08/25 03:53:53;;;;;;;12.10;10.80;;;;;;;16.67;59.75;99274.81;8577820;23;20208;-81
2021/08/25 03:57:14;;;;;;;11.77;9.43;;;;;;;16.54;58.59;99232.31;8578050;23;20184;-78
2021/08/25 04:00:36;;;;;;;11.50;10.27;;;;;;;16.31;60.56;99272.19;8577391;23;20685;-78
2021/08/25 04:03:57;;;;;;;12.20;10.53;;;;;;;16.14;60.13;99265.72;8576462;23;20209;-79
2021/08/25 04:07:20;;;;;;;15.70;11.43;;;;;;;15.57;62.12;99258.06;8578456;23;20209;-77
2021/08/25 04:10:42;;;;;;;14.13;10.57;;;;;;;16.39;60.53;99270.00;8578475;23;20178;-79
2021/08/25 04:14:04;;;;;;;12.20;10.90;;;;;;;16.39;60.31;99261.84;8579698;23;20230;-80
2021/08/25 04:17:26;;;;;;;14.20;11.83;;;;;;;16.04;60.86;99273.63;8593775;23;20177;-79
2021/08/25 04:20:47;;;;;;;13.27;11.70;;;;;;;16.21;61.55;99261.03;8580351;23;20208;-78
2021/08/25 04:24:10;;;;;;;13.87;10.93;;;;;;;16.48;60.67;99257.75;8580050;23;20207;-80
2021/08/25 04:27:32;;;;;;;12.87;10.80;;;;;;;16.49;59.99;99261.28;8565143;23;20185;-77
2021/08/25 04:30:53;;;;;;;15.13;11.60;;;;;;;16.18;60.68;99262.34;8578580;23;20168;-78
2021/08/25 04:34:15;;;;;;;12.83;11.57;;;;;;;16.10;60.58;99272.69;8593081;23;20197;-79
2021/08/25 04:37:37;;;;;;;12.80;11.50;;;;;;;15.82;61.38;99273.22;8579728;23;20185;-80
2021/08/25 04:41:00;;;;;;;13.40;10.90;;;;;;;16.28;60.89;99250.91;8593962;23;20206;-78
2021/08/25 04:44:21;;;;;;;12.80;11.50;;;;;;;16.37;60.31;99269.38;8596651;23;20209;-78
2021/08/25 04:47:43;;;;;;;11.67;10.47;;;;;;;16.22;60.64;99274.41;8613049;23;20189;-78
2021/08/25 04:51:04;;;;;;;13.93;11.57;;;;;;;15.98;61.11;99278.06;8619498;23;20171;-77
2021/08/25 04:54:26;;;;;;;11.70;10.37;;;;;;;16.48;60.03;99274.06;8620588;22;20203;-78
2021/08/25 04:57:49;;;;;;;12.03;10.83;;;;;;;16.43;60.16;99268.50;8620647;23;20179;-79
2021/08/25 05:01:11;;;;;;;13.33;11.10;;;;;;;16.33;60.04;99275.53;8622736;23;20340;-77
2021/08/25 05:04:32;;;;;;;12.73;11.33;;;;;;;16.40;60.19;99268.94;8623036;22;20209;-78
2021/08/25 05:07:54;;;;;;;13.70;11.53;;;;;;;16.32;60.36;99260.22;8623350;23;20189;-80
2021/08/25 05:11:15;;;;;;;13.97;12.60;;;;;;;16.33;60.54;99268.19;8623354;23;20174;-78
2021/08/25 05:14:38;;;;;;;13.37;11.50;;;;;;;16.30;60.99;99290.41;8622668;22;20255;-78
2021/08/25 05:18:00;;;;;;;12.67;11.40;;;;;;;16.31;60.96;99286.63;8623140;23;20189;-77
2021/08/25 05:21:23;;;;;;;15.13;12.60;;;;;;;16.39;60.90;99286.34;8622697;23;20199;-77
2021/08/25 05:24:44;;;;;;;14.80;13.20;;;;;;;16.33;61.16;99278.25;8623449;22;20207;-77
2021/08/25 05:28:06;;;;;;;14.43;12.83;;;;;;;16.36;61.32;99284.06;8622853;23;20176;-78
2021/08/25 05:31:29;;;;;;;15.73;11.87;;;;;;;16.60;60.52;99276.81;8623399;23;20199;-78
2021/08/25 05:34:50;;;;;;;14.40;12.93;;;;;;;16.63;60.98;99284.53;8622705;22;20202;-78
2021/08/25 05:38:12;;;;;;;13.90;12.50;;;;;;;16.88;61.03;99272.38;8622202;23;20197;-78
2021/08/25 05:41:33;;;;;;;14.03;12.53;;;;;;;17.02;60.64;99273.00;8622839;23;20221;-79
2021/08/25 05:44:55;;;;;;;13.77;11.67;;;;;;;17.26;59.50;99278.25;8621763;22;20211;-81
2021/08/25 05:48:18;;;;;;;14.40;11.40;;;;;;;17.49;59.77;99283.75;8622129;23;20183;-78
2021/08/25 05:51:39;;;;;;;13.77;12.00;;;;;;;17.60;59.63;99273.91;8621127;23;20181;-78
2021/08/25 05:55:01;;;;;;;14.43;11.27;;;;;;;17.72;58.66;99274.72;8622208;22;20204;-79
2021/08/25 05:58:23;;;;;;;15.20;11.83;;;;;;;17.78;59.41;99280.06;8622876;23;20182;-79
2021/08/25 06:01:44;;;;;;;12.60;11.23;;;;;;;18.77;57.21;99263.22;8623121;23;20208;-80
2021/08/25 06:05:08;;;;;;;16.97;11.57;;;;;;;19.21;56.68;99271.38;8624142;22;20193;-78
2021/08/25 06:08:30;;;;;;;11.93;10.73;;;;;;;19.34;56.45;99275.69;8622800;23;20182;-81
2021/08/25 06:11:51;;;;;;;10.60;9.60;;;;;;;19.98;54.75;99273.06;8624307;23;20189;-80
2021/08/25 06:15:14;;;;;;;12.13;10.10;;;;;;;20.67;52.53;99262.13;8622727;22;20201;-78
2021/08/25 06:18:35;;;;;;;13.47;10.40;;;;;;;20.63;53.13;99267.56;8622085;23;20189;-79
2021/08/25 06:21:58;;;;;;;9.10;8.07;;;;;;;20.83;50.96;99274.91;8622712;23;20198;-79
2021/08/25 06:25:20;;;;;;;9.17;8.27;;;;;;;20.58;50.78;99259.31;8622195;22;20217;-79
2021/08/25 06:28:42;;;;;;;8.30;7.50;;;;;;;20.74;52.10;99233.72;8621560;23;20201;-79
2021/08/25 06:32:04;;;;;;;9.43;8.53;;;;;;;20.07;51.42;99254.31;8621973;23;20193;-79
2021/08/25 06:35:25;;;;;;;9.87;8.87;;;;;;;19.58;53.44;99247.06;8621603;22;20208;-79
2021/08/25 06:38:48;;;;;;;9.20;8.30;;;;;;;20.17;52.26;99238.03;8635381;23;20174;-80
2021/08/25 06:42:10;;;;;;;8.17;7.37;;;;;;;20.37;51.78;99255.50;8621625;23;20235;-79
2021/08/25 06:45:32;;;;;;;8.90;7.63;;;;;;;20.10;52.51;99231.91;8621705;22;20228;-78
2021/08/25 06:48:53;;;;;;;9.60;7.80;;;;;;;20.48;51.13;99237.25;8621102;23;20185;-81
2021/08/25 06:52:15;;;;;;;8.27;7.43;;;;;;;20.59;51.72;99244.50;8621128;23;20189;-79
2021/08/25 06:55:38;;;;;;;8.57;7.77;;;;;;;20.37;51.04;99247.28;8622261;22;20206;-78
2021/08/25 06:59:00;;;;;;;8.07;7.27;;;;;;;20.78;50.20;99239.22;8621579;23;20182;-81
2021/08/25 07:02:21;;;;;;;7.67;7.03;;;;;;;20.52;51.41;99250.19;8621517;23;20666;-79
2021/08/25 07:05:43;;;;;;;6.90;6.20;;;;;;;21.47;49.22;99216.22;8621392;22;20201;-79
2021/08/25 07:09:04;;;;;;;8.70;6.67;;;;;;;21.97;48.50;99248.63;8634867;23;20174;-80
2021/08/25 07:12:27;;;;;;;9.30;7.17;;;;;;;21.23;50.26;99236.06;8621393;23;20178;-80
2021/08/25 07:15:49;;;;;;;7.83;7.13;;;;;;;21.22;49.01;99245.38;8620601;22;20201;-79
2021/08/25 07:19:11;;;;;;;6.87;6.27;;;;;;;22.10;47.89;99245.38;8620893;23;20185;-80
2021/08/25 07:22:32;;;;;;;7.00;6.40;;;;;;;21.84;46.93;99232.66;8620596;23;20197;-78
2021/08/25 07:25:54;;;;;;;6.97;6.27;;;;;;;21.84;48.16;99235.41;8621346;22;20203;-79
2021/08/25 07:29:17;;;;;;;6.67;6.03;;;;;;;22.82;45.17;99227.75;8620918;23;20189;-79
2021/08/25 07:32:40;;;;;;;7.73;5.80;;;;;;;22.42;46.22;99224.09;8621212;23;20507;-82
2021/08/25 07:36:01;;;;;;;6.73;5.53;;;;;;;21.99;46.28;99225.31;8620861;22;20202;-82
2021/08/25 07:39:23;;;;;;;6.47;5.77;;;;;;;21.89;46.79;99227.19;8619357;23;20189;-78
2021/08/25 07:42:45;;;;;;;6.53;5.80;;;;;;;22.25;46.62;99224.28;8634084;23;20201;-79
2021/08/25 07:46:08;;;;;;;6.43;5.80;;;;;;;21.95;46.65;99226.91;8619711;22;20340;-79
2021/08/25 07:49:30;;;;;;;7.53;6.17;;;;;;;20.94;49.38;99229.25;8615519;23;20629;-81
2021/08/25 07:52:53;;;;;;;6.53;5.70;;;;;;;21.56;47.43;99224.75;8620532;22;20568;-80
2021/08/25 07:56:15;;;;;;;6.40;5.63;;;;;;;22.21;47.36;99225.09;8618819;23;20193;-80
2021/08/25 07:59:36;;;;;;;6.33;5.47;;;;;;;23.22;43.72;99225.03;8619039;23;20173;-80
2021/08/25 08:02:59;;;;;;;6.77;5.57;;;;;;;22.76;43.62;99217.00;8623622;22;20200;-80
2021/08/25 08:06:21;;;;;;;5.10;4.70;;;;;;;23.12;43.76;99210.44;8638762;23;20175;-78
2021/08/25 08:09:43;;;;;;;5.90;5.30;;;;;;;23.91;42.69;99223.28;8624502;23;20178;-79
2021/08/25 08:13:04;;;;;;;6.43;5.40;;;;;;;22.77;43.46;99219.47;8634377;22;20175;-80
2021/08/25 08:16:26;;;;;;;6.30;4.93;;;;;;;23.36;44.52;99217.03;8639776;23;20181;-80
2021/08/25 08:19:49;;;;;;;6.90;5.13;;;;;;;24.79;42.22;99222.25;8640197;23;20183;-80
2021/08/25 08:23:11;;;;;;;5.50;4.70;;;;;;;23.17;44.47;99226.94;8624637;22;20206;-80
2021/08/25 08:26:32;;;;;;;5.47;4.97;;;;;;;23.24;42.98;99228.31;8625220;23;20183;-80
2021/08/25 08:29:54;;;;;;;6.57;5.03;;;;;;;23.65;41.92;99223.59;8624021;23;20189;-81
2021/08/25 08:33:16;;;;;;;5.50;4.97;;;;;;;23.10;43.45;99229.97;8624851;22;20200;-80
2021/08/25 08:36:39;;;;;;;5.20;4.70;;;;;;;24.78;41.29;99208.75;8624870;23;20643;-80
2021/08/25 08:40:00;;;;;;;6.30;5.00;;;;;;;24.79;40.00;99202.13;8623227;23;20512;-80
2021/08/25 08:43:22;;;;;;;6.63;5.00;;;;;;;24.17;42.78;99179.88;8624566;22;20708;-80
2021/08/25 08:46:44;;;;;;;6.67;4.60;;;;;;;23.88;41.62;99198.19;8624524;23;20168;-80
2021/08/25 08:50:07;;;;;;;6.90;4.50;;;;;;;23.74;41.96;99181.44;8623783;23;20175;-80
2021/08/25 08:53:30;;;;;;;5.20;4.47;;;;;;;24.83;40.06;99198.50;8640263;22;20201;-81
2021/08/25 08:56:51;;;;;;;5.70;4.67;;;;;;;25.45;39.12;99193.00;8639833;23;20213;-80
2021/08/25 09:00:14;;;;;;;6.07;4.40;;;;;;;25.24;38.33;99205.34;8639496;23;20175;-80
2021/08/25 09:03:38;;;;;;;4.70;4.20;;;;;;;25.40;39.15;99200.50;8626006;22;20207;-81
2021/08/25 09:07:00;;;;;;;5.67;4.17;;;;;;;25.69;38.87;99199.38;8640510;23;20182;-81
2021/08/25 09:10:26;;;;;;;6.90;4.47;;;;;;;25.50;36.88;99201.25;8626006;23;20179;-80
2021/08/25 09:13:48;;;;;;;5.07;4.30;;;;;;;25.66;37.32;99183.38;8626562;22;20201;-82
2021/08/25 09:17:10;;;;;;;4.03;3.63;;;;;;;25.17;37.21;99192.97;8627791;23;20186;-80
2021/08/25 09:20:33;;;;;;;5.90;4.20;;;;;;;26.26;37.17;99185.41;8626192;23;20181;-81
2021/08/25 09:23:55;;;;;;;4.40;4.00;;;;;;;25.14;37.97;99193.56;8627269;22;20206;-80
2021/08/25 09:27:18;;;;;;;5.03;4.00;;;;;;;25.88;36.66;99189.19;8626561;23;20242;-81
2021/08/25 09:30:57;;;;;;;4.80;4.00;;;;;;;25.98;35.82;99163.41;8626877;23;20188;-81
2021/08/25 09:34:26;;;;;;;4.47;3.97;;;;;;;23.66;38.11;99183.94;8642039;22;20198;-80
2021/08/25 09:37:52;;;;;;;4.43;3.73;;;;;;;22.74;40.89;99183.47;8629174;23;20622;-80
2021/08/25 09:41:14;;;;;;;7.17;4.33;;;;;;;23.27;40.89;99174.66;8641697;23;20181;-80
2021/08/25 09:44:42;;;;;;;4.17;3.70;;;;;;;24.62;38.07;99207.22;8623842;22;20212;-90
2021/08/25 09:48:29;;;;;;;5.33;3.87;;;;;;;25.44;35.70;99160.16;8640411;23;20172;-90
2021/08/25 09:51:54;;;;;;;4.30;3.90;;;;;;;23.41;39.84;99068.38;8639864;22;20203;-92
2021/08/25 09:55:38;;;;;;;4.43;4.03;;;;;;;24.46;35.79;99021.75;8626404;22;20187;-91
2021/08/25 09:59:07;;;;;;;4.77;4.27;;;;;;;25.16;36.40;99103.84;8598674;23;20194;-92
2021/08/25 10:02:34;;;;;;;5.23;3.93;;;;;;;25.26;35.91;99144.34;8640682;22;20199;-91
2021/08/25 10:05:56;;;;;;;4.60;4.10;;;;;;;25.64;35.57;99058.56;8641470;22;20172;-90
2021/08/25 10:09:18;;;;;;;5.33;4.40;;;;;;;24.72;37.64;99081.09;8641049;22;20187;-91
2021/08/25 10:12:40;;;;;;;5.33;3.97;;;;;;;24.15;37.67;99064.44;8641398;23;20181;-90
2021/08/25 10:16:02;;;;;;;6.30;5.70;;;;;;;24.45;37.47;99097.28;8641546;23;20178;-90
2021/08/25 10:19:35;;;;;;;7.53;6.07;;;;;;;26.38;35.75;99108.38;8641781;23;20177;-91
2021/08/25 10:22:57;;;;;;;9.37;8.00;;;;;;;26.36;33.74;99069.13;8641961;23;20190;-91
2021/08/25 10:26:19;;;;;;;4.93;3.83;;;;;;;25.73;33.95;99109.25;8642354;23;20175;-90
2021/08/25 10:30:07;;;;;;;4.30;3.90;;;;;;;25.48;34.36;99161.22;8640971;22;20192;-91
2021/08/25 10:33:35;;;;;;;6.00;4.03;;;;;;;23.80;35.41;99033.50;8641042;22;20176;-91
2021/08/25 10:37:25;;;;;;;5.27;4.47;;;;;;;24.94;34.33;99092.47;8626737;22;20640;-91
2021/08/25 10:40:48;;;;;;;7.40;4.30;;;;;;;26.00;32.89;99040.41;8625324;22;20173;-90
2021/08/25 10:45:06;;;;;;;5.00;3.87;;;;;;;26.54;34.24;99131.13;8640561;22;20277;-91
2021/08/25 10:48:50;;;;;;;5.47;4.20;;;;;;;25.72;31.50;99077.22;8640844;23;20166;-91
2021/08/25 10:52:48;;;;;;;5.00;3.80;;;;;;;25.93;32.03;99120.09;8599933;23;20189;-91
2021/08/25 11:09:12;;;;;;;5.37;4.17;;;;;;;26.58;32.50;99116.38;8622326;23;20176;-91
2021/08/25 11:13:08;;;;;;;4.87;4.37;;;;;;;25.53;30.87;98932.78;8640201;23;20209;-91
2021/08/25 11:16:30;;;;;;;5.60;4.43;;;;;;;24.23;32.91;98948.09;8598611;23;20185;-92
2021/08/25 11:19:56;;;;;;;5.20;4.20;;;;;;;24.98;32.28;99035.59;8625625;23;20188;-93
2021/08/25 11:23:18;;;;;;;4.67;4.10;;;;;;;25.15;31.46;99007.53;8626285;23;20200;-91
2021/08/25 11:26:41;;;;;;;5.43;4.07;;;;;;;25.45;31.99;99099.13;8640377;23;20174;-91
2021/08/25 11:30:10;;;;;;;4.50;4.03;;;;;;;25.37;31.95;99043.75;8640814;23;20196;-91
2021/08/25 11:33:33;;;;;;;4.60;4.03;;;;;;;26.24;31.13;99054.94;8640533;22;20251;-91
2021/08/25 11:36:58;;;;;;;6.77;4.80;;;;;;;26.14;31.14;98916.09;8599709;23;20229;-92
2021/08/25 11:40:23;;;;;;;4.97;4.40;;;;;;;27.30;28.54;98921.84;8640181;23;20177;-91
2021/08/25 11:43:50;;;;;;;5.80;4.33;;;;;;;28.18;28.78;99023.75;8625432;23;20643;-91
2021/08/25 11:47:18;;;;;;;6.10;4.13;;;;;;;28.00;29.52;99021.94;8626120;23;20252;-91
2021/08/25 11:50:43;;;;;;;6.00;4.07;;;;;;;28.31;29.31;99059.75;8627141;23;20199;-91
2021/08/25 11:54:05;;;;;;;5.13;4.60;;;;;;;26.72;30.40;99014.88;8643131;23;20178;-91
2021/08/25 11:57:40;;;;;;;5.20;4.17;;;;;;;25.22;31.48;98923.25;8641845;23;20185;-91
2021/08/25 12:01:05;;;;;;;4.93;4.23;;;;;;;26.70;31.17;99072.47;8641869;23;20182;-92
2021/08/25 12:04:27;;;;;;;5.30;4.67;;;;;;;26.45;30.44;98958.66;8642215;23;20273;-92
2021/08/25 12:08:07;;;;;;;5.73;4.23;;;;;;;26.81;31.06;99017.78;8642489;23;20180;-92
2021/08/25 12:11:29;;;;;;;5.73;4.50;;;;;;;26.40;30.62;98948.50;8642720;23;20166;-91
2021/08/25 12:14:53;;;;;;;6.10;4.57;;;;;;;25.76;30.86;98945.69;8642275;23;20256;-92
2021/08/25 12:18:19;;;;;;;6.37;4.73;;;;;;;26.11;31.47;99003.19;8642919;23;20188;-92
2021/08/25 12:21:43;;;;;;;4.80;4.10;;;;;;;27.32;30.46;98963.88;8643094;23;20228;-91
2021/08/25 12:25:06;;;;;;;7.13;4.30;;;;;;;26.60;31.20;99046.94;8641351;23;20209;-90
2021/08/25 12:28:34;;;;;;;7.00;4.87;;;;;;;27.15;30.61;99038.44;8626922;23;20171;-90
2021/08/25 12:31:57;;;;;;;5.27;4.50;;;;;;;26.19;30.17;98932.59;8641513;22;20205;-91
2021/08/25 12:35:25;;;;;;;6.07;4.67;;;;;;;26.86;31.61;98967.88;8641388;23;20181;-91
2021/08/25 12:38:47;;;;;;;6.57;5.07;;;;;;;26.78;30.09;98938.16;8626603;23;20174;-91
2021/08/25 12:42:09;;;;;;;6.27;4.73;;;;;;;27.59;29.54;98977.69;8642056;23;20253;-91
2021/08/25 12:45:31;;;;;;;6.17;4.60;;;;;;;27.23;30.05;98928.91;8641992;23;20192;-91
2021/08/25 12:48:54;;;;;;;5.83;4.70;;;;;;;27.69;29.44;98912.91;8600277;23;20197;-90
2021/08/25 12:52:17;;;;;;;6.57;4.93;;;;;;;26.51;29.71;98979.56;8641152;23;20301;-91
2021/08/25 12:55:40;;;;;;;6.27;5.20;;;;;;;26.54;29.22;98869.16;8626544;23;20174;-91
2021/08/25 12:59:02;;;;;;;5.93;4.60;;;;;;;27.54;28.65;99019.34;8641135;23;20278;-92
2021/08/25 13:02:29;;;;;;;5.83;4.90;;;;;;;27.44;29.89;98928.19;8626118;23;20178;-91
2021/08/25 13:05:52;;;;;;;6.23;5.40;;;;;;;27.15;28.13;98869.56;8626588;23;20242;-90
2021/08/25 13:09:16;;;;;;;5.67;5.07;;;;;;;27.27;29.24;99007.47;8600443;23;20232;-90
2021/08/25 13:12:38;;;;;;;7.30;5.40;;;;;;;25.68;32.52;98965.72;8641559;23;20499;-91
2021/08/25 13:16:02;;;;;;;4.93;4.33;;;;;;;25.44;32.15;98912.50;8627701;23;20174;-90
2021/08/25 13:19:27;;;;;;;5.53;4.53;;;;;;;26.27;30.66;98882.97;8644424;23;20260;-91
2021/08/25 13:22:49;;;;;;;6.00;5.20;;;;;;;26.51;30.81;98938.91;8621939;23;20214;-91
2021/08/25 13:26:19;;;;;;;5.30;4.80;;;;;;;28.36;29.17;98970.84;8600010;23;20181;-93
2021/08/25 13:29:45;;;;;;;6.17;4.70;;;;;;;28.88;28.11;98970.03;8643575;23;20197;-92
2021/08/25 13:33:14;;;;;;;5.50;4.80;;;;;;;28.77;28.35;98929.03;8642651;22;20194;-93
2021/08/25 13:36:39;;;;;;;5.47;4.70;;;;;;;28.52;29.67;98885.31;8616307;23;20173;-93
2021/08/25 13:40:01;;;;;;;5.77;5.17;;;;;;;28.60;27.97;98873.44;8641690;23;20182;-92
2021/08/25 13:43:25;;;;;;;5.97;5.03;;;;;;;26.72;30.74;98955.97;8627012;23;20652;-94
2021/08/25 13:46:50;;;;;;;5.80;4.43;;;;;;;25.84;31.56;98895.28;8600715;23;20222;-92
2021/08/25 13:50:16;;;;;;;6.17;4.97;;;;;;;25.99;30.85;98808.56;8627310;23;20181;-92
2021/08/25 13:53:59;;;;;;;6.47;4.77;;;;;;;27.32;30.85;98966.66;8627848;23;20624;-92
2021/08/25 14:19:05;;;;;;;6.17;5.00;;;;;;;26.08;32.00;98947.69;8498856;23;20192;-90
2021/08/25 14:22:45;;;;;;;4.97;4.43;;;;;;;26.15;30.80;98823.75;8513707;23;20187;-92
2021/08/25 14:26:23;;;;;;;8.20;4.93;;;;;;;27.34;28.81;98863.88;8468784;23;20187;-91
2021/08/25 14:30:17;;;;;;;6.07;4.93;;;;;;;27.49;30.09;98908.66;8512755;23;20226;-92
2021/08/25 14:33:40;;;;;;;5.87;4.60;;;;;;;26.87;31.64;98889.25;8498824;23;20172;-92
2021/08/25 14:41:00;;;;;;;5.10;4.27;;;;;;;26.85;31.02;98828.69;8498024;23;20744;-92
2021/08/25 14:44:43;;;;;;;5.17;4.67;;;;;;;26.42;31.51;98895.69;8513342;23;20195;-92
2021/08/25 14:48:08;;;;;;;5.10;4.20;;;;;;;26.46;31.09;98788.84;8498584;23;20559;-91
2021/08/25 14:51:39;;;;;;;5.00;4.50;;;;;;;27.09;31.11;98804.34;8473438;23;20195;-92
2021/08/25 14:55:08;;;;;;;6.60;4.40;;;;;;;26.64;30.50;98751.97;8562286;23;20242;-92
2021/08/25 14:58:40;;;;;;;5.50;4.70;;;;;;;26.98;31.53;98871.31;8600585;23;20196;-91
2021/08/25 15:06:36;;;;;;;6.13;4.40;;;;;;;27.43;30.22;98898.81;8596261;23;20169;-93
2021/08/25 15:09:59;;;;;;;5.33;4.43;;;;;;;26.32;32.55;98801.84;8625223;23;20184;-93
2021/08/25 15:13:27;;;;;;;5.57;4.73;;;;;;;26.97;31.33;98775.56;8663834;23;20191;-90
2021/08/25 15:17:13;;;;;;;5.90;4.30;;;;;;;27.82;30.36;98787.34;8663301;22;20176;-92
2021/08/25 15:29:27;;;;;;;6.43;4.70;;;;;;;25.85;30.33;98794.72;8472172;23;20152;-91
2021/08/25 15:36:55;;;;;;;6.20;4.80;;;;;;;25.26;32.95;98739.41;8443621;23;20188;-91
2021/08/25 15:40:55;;;;;;;5.43;4.40;;;;;;;25.17;33.02;98721.03;8470796;23;20505;-90
2021/08/25 15:44:26;;;;;;;7.13;4.30;;;;;;;25.71;32.28;98699.94;8456665;23;20217;-90
2021/08/25 15:47:52;;;;;;;8.43;5.33;;;;;;;25.76;32.33;98782.72;8471692;23;20176;-90
2021/08/25 15:51:28;;;;;;;6.00;4.73;;;;;;;25.93;32.08;98782.16;8470627;23;20227;-91
2021/08/25 15:55:00;;;;;;;6.27;4.37;;;;;;;26.95;30.99;98861.69;8470643;23;20577;-90
2021/08/25 16:02:19;;;;;;;7.33;5.10;;;;;;;27.03;31.44;98847.13;8579572;23;20180;-90
2021/08/25 16:06:09;;;;;;;5.17;4.57;;;;;;;26.36;31.56;98697.81;8575119;23;20199;-90
2021/08/25 16:37:06;;;;;;;5.80;4.60;;;;;;;26.98;31.13;98840.88;8276398;23;20242;-90
2021/08/25 17:32:46;;;;;;;7.20;5.00;;;;;;;26.24;36.12;98781.25;8429049;22;20254;-82
2021/08/25 17:36:07;;;;;;;7.00;4.60;;;;;;;26.49;36.91;98805.63;8537536;23;20201;-82
2021/08/25 17:39:29;;;;;;;7.53;4.87;;;;;;;26.15;38.03;98799.72;8552826;23;20174;-82
2021/08/25 17:42:51;;;;;;;8.33;5.00;;;;;;;25.35;38.84;98721.03;8537941;23;20186;-82
2021/08/25 17:46:12;;;;;;;6.43;5.00;;;;;;;25.28;40.33;98806.19;8540373;23;20203;-82
2021/08/25 17:49:35;;;;;;;5.97;4.67;;;;;;;25.18;39.59;98775.13;8540335;23;20182;-82
2021/08/25 17:52:58;;;;;;;6.33;5.10;;;;;;;24.18;42.13;98799.34;8538452;23;20210;-82
2021/08/25 17:56:20;;;;;;;6.63;5.10;;;;;;;24.51;42.13;98805.84;8553702;23;20260;-81
2021/08/25 17:59:41;;;;;;;6.33;5.00;;;;;;;24.56;41.87;98809.38;8540298;23;20184;-82
2021/08/25 18:03:04;;;;;;;5.50;4.67;;;;;;;24.48;42.34;98817.47;8539508;23;20198;-82
2021/08/25 18:06:27;;;;;;;7.00;5.27;;;;;;;24.28;43.38;98815.75;8552993;23;20204;-82
2021/08/25 18:09:48;;;;;;;7.90;5.90;;;;;;;23.42;45.32;98792.91;8539441;23;20183;-82
2021/08/25 18:13:10;;;;;;;6.50;5.73;;;;;;;23.47;45.75;98814.03;8539487;23;20185;-82
2021/08/25 18:16:32;;;;;;;8.60;5.53;;;;;;;23.38;46.34;98822.13;8539661;23;20211;-82
2021/08/25 18:19:54;;;;;;;6.27;5.27;;;;;;;23.61;46.36;98813.09;8542350;23;20189;-83
2021/08/25 18:23:17;;;;;;;8.67;5.83;;;;;;;23.55;46.75;98814.25;8538132;23;20192;-82
2021/08/25 18:26:39;;;;;;;6.50;5.37;;;;;;;23.37;46.74;98809.44;8540545;23;20531;-83
2021/08/25 18:30:01;;;;;;;7.13;6.20;;;;;;;23.02;47.48;98820.66;8540219;23;20187;-82
2021/08/25 18:33:38;;;;;;;8.60;5.80;;;;;;;22.33;49.91;98821.81;8539747;23;20526;-83
2021/08/25 18:36:59;;;;;;;7.00;6.30;;;;;;;22.00;51.53;98828.78;8372354;23;20189;-83
2021/08/25 18:40:22;;;;;;;8.43;6.10;;;;;;;22.30;50.91;98817.69;8371280;23;20637;-82
2021/08/25 18:43:44;;;;;;;7.43;6.00;;;;;;;22.38;50.70;98822.63;8372037;23;20210;-81
2021/08/25 18:47:06;;;;;;;6.33;5.50;;;;;;;21.47;53.36;98828.50;8371597;23;20556;-82
2021/08/25 18:50:28;;;;;;;7.03;5.53;;;;;;;21.92;52.11;98826.59;8381559;23;20181;-82
2021/08/25 18:53:50;;;;;;;6.60;5.60;;;;;;;21.89;52.02;98826.34;8371299;23;20212;-82
2021/08/25 18:57:14;;;;;;;9.27;5.70;;;;;;;22.09;51.07;98813.41;8364207;23;20186;-82
2021/08/25 19:00:36;;;;;;;6.47;5.60;;;;;;;21.92;51.78;98823.88;8369516;23;20188;-82
2021/08/25 19:03:57;;;;;;;6.63;5.93;;;;;;;21.89;51.70;98827.16;8371088;23;20211;-81
2021/08/25 19:07:19;;;;;;;7.50;6.30;;;;;;;21.48;52.53;98819.22;8379596;23;20186;-81
2021/08/25 19:10:42;;;;;;;9.40;6.33;;;;;;;20.84;54.82;98828.97;8376817;23;20202;-82
2021/08/25 19:14:06;;;;;;;9.67;6.07;;;;;;;19.99;55.74;98719.06;8467270;23;20753;-81
2021/08/25 19:17:27;;;;;;;6.50;5.80;;;;;;;21.13;53.55;98821.09;8554136;23;20160;-81
2021/08/25 19:20:50;;;;;;;7.43;6.03;;;;;;;20.53;55.43;98823.66;8556326;23;20177;-81
2021/08/25 19:24:12;;;;;;;8.10;6.33;;;;;;;20.44;54.44;98760.34;8551736;23;20653;-81
2021/08/25 19:27:34;;;;;;;6.57;5.63;;;;;;;20.81;54.08;98796.59;8551124;23;20653;-81
2021/08/25 19:30:57;;;;;;;7.43;6.17;;;;;;;20.45;55.32;98811.28;8548732;23;20183;-83
2021/08/25 19:34:19;;;;;;;8.83;6.20;;;;;;;20.27;54.31;98765.22;8535985;23;20241;-81
2021/08/25 19:37:41;;;;;;;9.17;6.97;;;;;;;20.08;55.93;98820.69;8548733;23;20182;-81
2021/08/25 19:41:03;;;;;;;8.37;6.40;;;;;;;20.16;55.51;98790.09;8548763;23;20515;-81
2021/08/25 19:44:25;;;;;;;11.60;6.10;;;;;;;20.40;55.19;98832.38;8549472;23;20258;-81
2021/08/25 19:47:48;;;;;;;8.63;6.67;;;;;;;20.47;54.61;98819.25;8540481;23;20183;-81
2021/08/25 19:51:11;;;;;;;8.50;6.73;;;;;;;20.72;53.99;98824.81;8541143;23;20182;-82
2021/08/25 19:54:32;;;;;;;7.67;5.83;;;;;;;20.75;53.74;98825.09;8554481;23;20207;-81
2021/08/25 19:57:54;;;;;;;9.10;6.00;;;;;;;20.15;54.55;98783.78;8540448;23;20179;-82
2021/08/25 20:01:16;;;;;;;6.70;5.80;;;;;;;20.57;53.87;98827.50;8541036;23;20180;-82
2021/08/25 20:04:39;;;;;;;9.47;6.33;;;;;;;20.35;53.89;98808.50;8539171;23;20207;-82
2021/08/25 20:08:00;;;;;;;9.00;6.60;;;;;;;20.05;54.47;98832.16;8539634;23;20183;-82
2021/08/25 20:11:22;;;;;;;9.30;6.57;;;;;;;19.79;55.67;98808.44;8541736;23;20207;-82
2021/08/25 20:14:44;;;;;;;8.47;6.50;;;;;;;20.31;54.30;98831.22;8542482;23;20203;-81
2021/08/25 20:18:05;;;;;;;6.50;5.40;;;;;;;20.18;54.15;98818.03;8542130;23;20183;-82
2021/08/25 20:21:28;;;;;;;8.47;6.27;;;;;;;19.93;54.04;98774.06;8542319;23;20183;-81
2021/08/25 20:24:50;;;;;;;7.23;6.13;;;;;;;19.96;54.72;98800.88;8540701;23;20217;-82
2021/08/25 20:28:12;;;;;;;10.27;6.87;;;;;;;19.90;54.31;98801.94;8555786;23;20186;-82
2021/08/25 20:31:33;;;;;;;7.00;6.20;;;;;;;19.83;54.17;98785.78;8542177;23;20188;-82
2021/08/25 20:34:55;;;;;;;8.40;5.80;;;;;;;19.88;53.87;98788.53;8543139;23;20199;-81
2021/08/25 20:38:18;;;;;;;9.20;6.77;;;;;;;19.70;54.54;98780.75;8542152;23;20183;-82
2021/08/25 20:41:40;;;;;;;7.23;6.03;;;;;;;19.19;56.26;98795.13;8555935;23;20183;-82
2021/08/25 20:45:02;;;;;;;7.97;6.83;;;;;;;19.27;56.15;98802.06;8541765;23;20208;-82
2021/08/25 20:48:23;;;;;;;8.47;6.30;;;;;;;19.27;56.01;98761.06;8541252;23;20185;-82
2021/08/25 20:51:45;;;;;;;8.33;6.33;;;;;;;19.66;54.71;98774.19;8542689;23;20179;-82
2021/08/25 20:55:09;;;;;;;8.87;7.13;;;;;;;19.39;55.53;98773.44;8542121;23;20665;-82
2021/08/25 20:58:31;;;;;;;7.87;6.20;;;;;;;19.25;54.99;98733.13;8555010;23;20665;-82
